Time;durP1;ratioP1;P1;durP2;ratioP2;P2;SDS_P1;SDS_P2;PMS_P1;PMS_P2;Temp;Humidity;BMP_temperature;BMP_pressure;BME280_temperature;BME280_humidity;BME280_pressure;Samples;Min_cycle;Max_cycle;Signal;HPM_P1;HPM_P2
2023/05/18 00:00:45;;;;;;;8.65;4.50;;;;;;;9.00;73.73;102767.13;5038941;28;20393;-79
2023/05/18 00:03:11;;;;;;;10.98;4.75;;;;;;;9.08;73.39;102769.13;5044274;28;20100;-79
2023/05/18 00:05:36;;;;;;;9.20;4.32;;;;;;;8.91;73.86;102771.84;5023677;28;20033;-79
2023/05/18 00:08:02;;;;;;;9.38;5.00;;;;;;;9.04;73.20;102775.69;5029883;28;20079;-79
2023/05/18 00:10:28;;;;;;;8.15;4.28;;;;;;;8.89;74.59;102769.38;5042745;28;20485;-79
2023/05/18 04:16:44;;;;;;;4.85;3.22;;;;;;;7.32;82.20;102801.44;4574719;22;20053;-74
2023/05/18 04:19:10;;;;;;;7.75;3.05;;;;;;;7.37;82.98;102808.03;5014621;28;20033;-74
2023/05/18 04:21:35;;;;;;;8.45;3.33;;;;;;;7.35;82.82;102807.53;5016813;28;20060;-74
2023/05/18 04:24:04;;;;;;;6.68;3.30;;;;;;;7.23;83.92;102814.44;5018081;28;20130;-74
2023/05/18 04:26:30;;;;;;;9.82;3.92;;;;;;;7.25;83.35;102825.25;5000529;28;20041;-74
2023/05/18 04:28:58;;;;;;;4.18;3.22;;;;;;;7.16;84.72;102824.31;5006747;28;20025;-74
2023/05/18 04:31:26;;;;;;;6.15;4.40;;;;;;;7.31;83.62;102821.22;4999456;28;20497;-74
2023/05/18 04:33:52;;;;;;;5.13;3.00;;;;;;;7.30;84.36;102825.16;4998574;28;20502;-74
2023/05/18 04:36:19;;;;;;;4.28;3.45;;;;;;;7.28;84.40;102816.28;5016006;28;20087;-74
2023/05/18 04:38:45;;;;;;;5.47;3.72;;;;;;;7.26;84.72;102826.91;5006695;28;20033;-74
2023/05/18 04:41:10;;;;;;;4.68;3.83;;;;;;;7.30;83.75;102825.16;5020834;28;20021;-74
2023/05/18 04:43:36;;;;;;;6.35;3.40;;;;;;;7.30;85.04;102830.72;5004118;28;20037;-74
2023/05/18 04:46:01;;;;;;;7.63;3.92;;;;;;;7.35;84.44;102838.16;5012683;28;20413;-74
2023/05/18 04:48:28;;;;;;;7.25;3.95;;;;;;;7.35;85.21;102838.97;5012285;28;20041;-74
2023/05/18 04:50:54;;;;;;;7.45;3.50;;;;;;;7.32;85.39;102834.03;5014884;28;20073;-74
2023/05/18 04:53:20;;;;;;;11.70;3.67;;;;;;;7.36;85.19;102845.38;5010933;28;20040;-74
2023/05/18 04:55:48;;;;;;;4.60;2.85;;;;;;;7.53;83.98;102846.44;5001571;28;20041;-74
2023/05/18 04:58:15;;;;;;;3.90;2.90;;;;;;;7.44;84.64;102837.16;5024383;28;20115;-74
2023/05/18 05:00:41;;;;;;;8.90;3.47;;;;;;;7.61;83.91;102846.84;5012129;28;20517;-74
2023/05/18 05:03:07;;;;;;;5.05;3.28;;;;;;;7.62;84.01;102834.56;5013064;28;20121;-74
2023/05/18 05:05:33;;;;;;;8.15;3.20;;;;;;;7.50;84.92;102838.66;5011242;28;20048;-74
2023/05/18 05:07:59;;;;;;;7.80;3.75;;;;;;;7.60;84.25;102846.00;5016670;28;20079;-74
2023/05/18 05:10:24;;;;;;;4.25;2.97;;;;;;;7.49;85.23;102845.41;4997592;28;20038;-74
2023/05/18 05:12:50;;;;;;;14.73;3.88;;;;;;;7.64;84.37;102840.66;5004473;28;20459;-74
2023/05/18 05:15:16;;;;;;;8.65;3.92;;;;;;;7.70;84.05;102850.56;4989088;28;20062;-74
2023/05/18 05:17:41;;;;;;;5.93;3.75;;;;;;;7.73;84.26;102855.50;4980711;28;20519;-74
2023/05/18 05:20:07;;;;;;;7.72;3.83;;;;;;;7.70;85.27;102851.38;4977212;28;21059;-74
2023/05/18 05:22:32;;;;;;;11.80;3.85;;;;;;;7.81;83.90;102848.41;4983969;28;20051;-74
2023/05/18 05:24:58;;;;;;;9.48;3.35;;;;;;;7.77;85.26;102850.16;5001459;28;20400;-75
2023/05/18 05:27:25;;;;;;;8.13;3.50;;;;;;;7.92;83.72;102847.84;4984426;28;21061;-74
2023/05/18 05:29:50;;;;;;;7.68;3.67;;;;;;;7.83;85.64;102852.50;4978551;28;20092;-74
2023/05/18 05:32:16;;;;;;;5.57;3.38;;;;;;;7.92;83.47;102856.22;4997240;28;20030;-74
2023/05/18 05:34:46;;;;;;;4.50;3.13;;;;;;;7.90;84.09;102850.13;4997677;28;20116;-74
2023/05/18 05:37:13;;;;;;;7.32;3.72;;;;;;;8.02;84.75;102857.97;4998649;28;20026;-74
2023/05/18 05:39:38;;;;;;;7.30;3.60;;;;;;;7.88;85.88;102868.31;4999193;28;20083;-74
2023/05/18 05:42:05;;;;;;;5.95;3.72;;;;;;;7.77;87.44;102859.31;4990075;28;20042;-74
2023/05/18 05:44:30;;;;;;;6.82;2.80;;;;;;;7.92;86.14;102866.53;4988385;28;20052;-74
2023/05/18 05:46:55;;;;;;;5.82;3.33;;;;;;;7.82;87.92;102859.25;4995559;28;20066;-74
2023/05/18 05:49:21;;;;;;;7.28;3.15;;;;;;;7.93;83.98;102859.84;4981824;28;20038;-74
2023/05/18 05:51:46;;;;;;;9.27;3.42;;;;;;;8.00;84.70;102859.44;4983597;28;20556;-74
2023/05/18 05:54:11;;;;;;;8.90;4.10;;;;;;;8.11;84.15;102861.66;4986306;28;20681;-74
2023/05/18 05:56:37;;;;;;;6.13;3.90;;;;;;;7.90;86.39;102866.84;5007355;28;20048;-74
2023/05/18 05:59:02;;;;;;;10.10;4.13;;;;;;;8.08;87.31;102856.72;4986714;28;20037;-74
2023/05/18 06:01:27;;;;;;;8.18;3.13;;;;;;;8.25;84.19;102872.00;4984679;28;20038;-74
2023/05/18 06:03:53;;;;;;;4.18;3.08;;;;;;;8.37;83.39;102874.22;4983497;28;20256;-74
2023/05/18 06:06:18;;;;;;;7.50;3.60;;;;;;;8.25;84.88;102867.22;4994827;28;20061;-74
2023/05/18 06:08:44;;;;;;;7.57;3.38;;;;;;;8.26;84.93;102862.47;4980469;28;20060;-74
2023/05/18 06:11:09;;;;;;;8.95;3.45;;;;;;;8.22;86.17;102867.88;4985960;28;20034;-74
2023/05/18 06:13:35;;;;;;;5.40;3.70;;;;;;;8.25;87.97;102858.84;4996735;28;20037;-74
2023/05/18 06:16:00;;;;;;;3.45;2.60;;;;;;;8.32;85.76;102862.03;4999020;28;21793;-74
2023/05/18 06:18:25;;;;;;;6.50;3.78;;;;;;;8.39;88.51;102860.78;4990779;28;20041;-74
2023/05/18 06:20:51;;;;;;;6.20;3.50;;;;;;;8.31;86.57;102865.97;4985159;28;20186;-74
2023/05/18 06:23:21;;;;;;;8.10;3.28;;;;;;;8.17;87.31;102862.38;4995298;28;20357;-74
2023/05/18 06:25:47;;;;;;;8.18;4.22;;;;;;;8.18;87.39;102872.41;5000341;28;20300;-74
2023/05/18 06:28:12;;;;;;;6.70;3.25;;;;;;;8.45;85.91;102876.28;5004431;28;20632;-74
2023/05/18 06:30:38;;;;;;;8.05;2.88;;;;;;;8.34;87.01;102868.13;4993813;28;20030;-74
2023/05/18 06:33:03;;;;;;;5.95;3.40;;;;;;;8.42;86.30;102871.34;4993687;28;20089;-74
2023/05/18 06:35:28;;;;;;;9.73;3.58;;;;;;;8.29;86.10;102871.03;4985447;28;20033;-74
2023/05/18 06:37:54;;;;;;;8.27;3.10;;;;;;;9.15;95.21;102877.66;4979302;28;20176;-73
2023/05/18 06:40:19;;;;;;;7.88;4.18;;;;;;;9.09;80.29;102876.16;4999717;28;20096;-75
2023/05/18 06:42:45;;;;;;;6.43;3.13;;;;;;;8.90;82.72;102871.59;4978637;28;20033;-74
2023/05/18 06:45:11;;;;;;;8.35;3.30;;;;;;;8.94;82.36;102877.38;4978451;28;20145;-76
2023/05/18 06:47:36;;;;;;;10.25;3.90;;;;;;;8.97;81.79;102878.69;4973814;28;20120;-76
2023/05/18 06:50:02;;;;;;;8.73;3.42;;;;;;;8.94;81.85;102878.19;4993591;28;21141;-73
2023/05/18 06:52:28;;;;;;;9.30;3.55;;;;;;;8.99;80.47;102888.41;5001872;28;20457;-74
2023/05/18 06:54:54;;;;;;;4.10;2.47;;;;;;;9.03;80.89;102885.81;4997194;28;20032;-73
2023/05/18 06:57:19;;;;;;;5.93;3.28;;;;;;;9.02;80.44;102884.94;4995294;28;20036;-73
2023/05/18 06:59:49;;;;;;;8.27;3.05;;;;;;;9.07;78.10;102887.63;4999949;28;20030;-73
2023/05/18 07:02:14;;;;;;;4.00;2.40;;;;;;;9.14;77.18;102888.00;4977864;28;20034;-74
2023/05/18 07:04:40;;;;;;;6.43;2.63;;;;;;;9.12;76.93;102895.06;4982404;28;20463;-74
2023/05/18 07:07:06;;;;;;;15.85;3.47;;;;;;;9.11;75.94;102888.66;4978554;28;20045;-74
2023/05/18 07:09:31;;;;;;;8.13;3.33;;;;;;;9.21;75.51;102886.72;5005402;28;20030;-74
2023/05/18 07:11:57;;;;;;;5.68;2.63;;;;;;;9.39;76.26;102888.47;5000119;28;20038;-73
2023/05/18 07:14:22;;;;;;;5.95;2.40;;;;;;;9.34;75.41;102881.06;4996089;28;20471;-73
2023/05/18 07:16:48;;;;;;;9.07;2.70;;;;;;;9.42;74.54;102882.22;4996947;28;20176;-73
2023/05/18 07:19:13;;;;;;;6.43;2.33;;;;;;;9.63;74.31;102892.84;4995834;28;20605;-74
2023/05/18 07:21:39;;;;;;;6.05;2.80;;;;;;;9.63;73.98;102892.84;4999666;28;20088;-73
2023/05/18 07:24:04;;;;;;;5.97;2.10;;;;;;;9.62;72.42;102885.63;4999369;28;20498;-74
2023/05/18 07:26:31;;;;;;;6.32;2.47;;;;;;;9.67;72.04;102894.69;4996772;28;20038;-73
2023/05/18 07:28:56;;;;;;;9.57;2.22;;;;;;;9.72;72.86;102890.94;5000838;28;20030;-74
2023/05/18 07:31:22;;;;;;;11.90;4.30;;;;;;;9.80;72.72;102895.72;4997160;28;20072;-74
2023/05/18 07:33:47;;;;;;;5.47;2.17;;;;;;;9.83;71.87;102889.50;4984205;28;20029;-74
2023/05/18 07:36:13;;;;;;;3.22;2.80;;;;;;;9.93;71.27;102891.19;4979701;28;20510;-73
2023/05/18 07:38:38;;;;;;;4.82;2.15;;;;;;;10.04;73.17;102891.72;4994575;28;20042;-73
2023/05/18 07:41:04;;;;;;;4.78;2.53;;;;;;;10.08;71.93;102890.72;4996881;28;20030;-73
2023/05/18 07:43:30;;;;;;;3.47;2.10;;;;;;;10.05;70.33;102893.34;4993438;28;20862;-73
2023/05/18 07:45:55;;;;;;;4.75;1.90;;;;;;;10.04;70.29;102897.31;4985765;28;20116;-73
2023/05/18 07:48:20;;;;;;;5.70;2.20;;;;;;;10.04;70.33;102900.91;4967840;28;20030;-75
2023/05/18 07:50:45;;;;;;;5.00;2.92;;;;;;;10.10;71.16;102901.59;4988991;28;20030;-74
2023/05/18 07:53:11;;;;;;;5.43;2.20;;;;;;;10.07;69.23;102903.06;4987035;28;20156;-73
2023/05/18 07:55:36;;;;;;;9.18;2.33;;;;;;;10.04;69.89;102902.91;5005946;28;20026;-74
2023/05/18 07:58:02;;;;;;;11.25;3.20;;;;;;;9.96;69.56;102896.94;5004162;28;20116;-74
2023/05/18 08:00:27;;;;;;;6.53;2.45;;;;;;;10.04;69.62;102902.91;4985684;28;21398;-74
2023/05/18 08:02:53;;;;;;;8.00;2.05;;;;;;;10.03;70.56;102912.44;4984845;28;20084;-73
2023/05/18 08:05:21;;;;;;;5.32;2.47;;;;;;;9.95;70.17;102900.91;4972826;28;20096;-74
2023/05/18 08:07:46;;;;;;;7.88;2.13;;;;;;;10.05;71.46;102910.13;4987230;28;20025;-73
2023/05/18 08:10:12;;;;;;;5.20;2.00;;;;;;;9.97;70.02;102914.53;4991383;28;20044;-74
2023/05/18 08:12:37;;;;;;;4.32;2.22;;;;;;;10.20;68.37;102914.44;4992933;28;20030;-74
2023/05/18 08:15:03;;;;;;;5.38;2.20;;;;;;;10.26;69.18;102905.56;4964289;28;20517;-73
2023/05/18 08:17:28;;;;;;;4.75;2.63;;;;;;;10.03;67.69;102901.22;4994368;28;20032;-76
2023/05/18 08:19:54;;;;;;;9.63;3.13;;;;;;;10.10;68.45;102913.59;4979679;28;20045;-76
2023/05/18 08:22:19;;;;;;;4.53;2.08;;;;;;;10.24;69.13;102907.88;4980902;28;20045;-76
2023/05/18 08:24:45;;;;;;;4.85;2.55;;;;;;;10.09;67.90;102905.53;4978970;28;20042;-76
2023/05/18 08:27:11;;;;;;;4.90;2.60;;;;;;;10.31;68.21;102910.25;4983395;28;20026;-75
2023/05/18 08:29:36;;;;;;;5.35;2.40;;;;;;;10.38;67.78;102907.78;4998588;28;20037;-76
2023/05/18 08:32:04;;;;;;;4.72;2.50;;;;;;;10.14;66.33;102896.97;4974128;28;20022;-76
2023/05/18 08:34:30;;;;;;;12.10;2.17;;;;;;;10.34;66.86;102907.59;4997967;28;20538;-76
2023/05/18 08:36:55;;;;;;;10.43;2.45;;;;;;;10.28;67.44;102908.84;4996036;28;20033;-76
2023/05/18 08:39:21;;;;;;;6.22;3.60;;;;;;;10.33;67.05;102907.91;4997663;28;20069;-75
2023/05/18 08:41:59;;;;;;;5.72;2.65;;;;;;;10.47;67.69;102904.97;5000573;28;20034;-76
2023/05/18 08:44:34;;;;;;;4.15;1.92;;;;;;;10.59;66.86;102907.94;4973634;28;20559;-75
2023/05/18 08:47:02;;;;;;;7.20;2.95;;;;;;;10.57;66.68;102904.66;4995681;28;20600;-76
2023/05/18 08:49:29;;;;;;;6.90;2.20;;;;;;;10.98;66.80;102900.50;4996422;28;20033;-75
2023/05/18 08:51:59;;;;;;;6.25;2.30;;;;;;;11.12;64.25;102898.34;4981005;28;21232;-75
2023/05/18 08:54:25;;;;;;;6.63;2.67;;;;;;;10.93;65.49;102895.91;4991898;28;20493;-75
2023/05/18 08:56:51;;;;;;;4.15;3.10;;;;;;;11.26;67.83;102902.94;4996645;28;20033;-75
2023/05/18 08:59:25;;;;;;;6.55;2.15;;;;;;;11.45;62.06;102900.59;5001017;28;20565;-75
2023/05/18 09:01:53;;;;;;;4.45;1.92;;;;;;;11.54;63.33;102892.16;4998028;28;20040;-75
2023/05/18 09:04:19;;;;;;;5.38;2.00;;;;;;;11.73;64.77;102894.56;4990119;28;20107;-74
2023/05/18 09:06:47;;;;;;;6.45;2.08;;;;;;;12.06;60.68;102889.13;4996016;28;20038;-74
2023/05/18 09:09:13;;;;;;;6.35;3.00;;;;;;;12.04;60.75;102891.47;4990175;28;20076;-74
2023/05/18 09:11:39;;;;;;;7.20;2.88;;;;;;;12.04;63.21;102899.03;4997497;28;20348;-74
2023/05/18 09:14:05;;;;;;;5.80;2.13;;;;;;;11.96;62.30;102893.16;4998957;28;20495;-74
2023/05/18 09:16:32;;;;;;;3.90;2.00;;;;;;;11.83;59.00;102888.56;4990165;28;20053;-74
2023/05/18 09:18:57;;;;;;;9.20;3.60;;;;;;;11.72;59.97;102890.94;4979406;28;20065;-73
2023/05/18 09:21:23;;;;;;;8.10;2.75;;;;;;;11.68;62.25;102887.16;4997378;28;20042;-74
2023/05/18 09:23:49;;;;;;;7.75;2.75;;;;;;;11.44;62.40;102881.28;4993905;28;21090;-73
2023/05/18 09:26:15;;;;;;;3.83;2.47;;;;;;;12.15;62.06;102889.09;4993027;28;20042;-74
2023/05/18 09:28:41;;;;;;;5.35;2.15;;;;;;;11.93;61.57;102881.75;4990010;28;20034;-74
2023/05/18 09:31:11;;;;;;;6.05;2.90;;;;;;;12.04;61.26;102880.25;4992921;28;20032;-75
2023/05/18 09:33:38;;;;;;;4.57;2.35;;;;;;;12.45;59.45;102875.00;4992342;28;20018;-75
2023/05/18 09:36:08;;;;;;;15.55;3.13;;;;;;;12.56;61.11;102867.78;4992303;28;20035;-74
2023/05/18 09:38:39;;;;;;;4.72;2.58;;;;;;;12.55;60.56;102875.41;4994997;28;20029;-74
2023/05/18 09:41:09;;;;;;;6.93;3.30;;;;;;;12.02;60.54;102874.13;4995588;28;20030;-74
2023/05/18 09:43:35;;;;;;;8.30;2.72;;;;;;;12.41;60.60;102870.06;4994841;28;20158;-73
2023/05/18 09:46:05;;;;;;;6.57;2.78;;;;;;;12.62;60.38;102866.44;5002748;28;20125;-74
2023/05/18 09:48:30;;;;;;;6.18;2.92;;;;;;;12.74;59.48;102860.06;4999104;28;20503;-74
2023/05/18 09:50:58;;;;;;;5.90;2.83;;;;;;;13.07;60.52;102857.25;4996817;28;20033;-74
2023/05/18 09:53:24;;;;;;;4.43;2.20;;;;;;;13.04;59.48;102851.50;4999903;28;20388;-74
2023/05/18 09:55:49;;;;;;;9.48;3.08;;;;;;;12.40;60.70;102856.38;4986805;28;20041;-74
2023/05/18 09:58:15;;;;;;;6.63;3.05;;;;;;;13.05;61.30;102853.13;4979761;28;20406;-74
2023/05/18 10:00:50;;;;;;;10.88;3.65;;;;;;;13.35;57.75;102845.38;4991056;28;20030;-74
2023/05/18 10:03:21;;;;;;;6.25;2.90;;;;;;;13.25;59.12;102840.19;4992189;28;20038;-72
2023/05/18 10:05:47;;;;;;;8.60;2.97;;;;;;;13.49;57.45;102851.50;4995681;28;20045;-73
2023/05/18 10:08:16;;;;;;;9.25;3.45;;;;;;;13.20;58.51;102850.47;5001162;28;20026;-73
2023/05/18 10:10:44;;;;;;;7.15;2.70;;;;;;;13.47;54.70;102853.84;4998070;28;20502;-76
2023/05/18 10:13:18;;;;;;;7.63;3.03;;;;;;;13.59;55.32;102845.41;4996987;28;20407;-74
2023/05/18 10:15:54;;;;;;;7.13;2.60;;;;;;;13.46;56.12;102857.81;4997883;28;20062;-74
2023/05/18 10:18:32;;;;;;;4.45;2.70;;;;;;;13.85;55.49;102844.25;4979379;28;20040;-74
2023/05/18 10:21:00;;;;;;;5.10;2.47;;;;;;;14.21;54.74;102843.38;4995821;28;20030;-75
2023/05/18 10:23:26;;;;;;;10.02;3.10;;;;;;;13.81;56.75;102837.69;4994204;28;20071;-75
2023/05/18 10:25:53;;;;;;;7.63;2.72;;;;;;;13.92;58.25;102830.38;4993400;28;20033;-75
2023/05/18 10:28:26;;;;;;;7.63;2.53;;;;;;;14.19;60.19;102839.28;4993829;28;20061;-75
2023/05/18 10:30:53;;;;;;;7.30;2.88;;;;;;;14.25;56.79;102832.19;4998023;28;20038;-73
2023/05/18 10:33:21;;;;;;;7.03;3.70;;;;;;;14.31;55.87;102830.75;4994540;28;20391;-73
2023/05/18 10:35:48;;;;;;;10.40;3.45;;;;;;;15.78;60.24;102831.19;5000749;28;20122;-73
2023/05/18 10:38:25;;;;;;;7.45;2.75;;;;;;;15.34;56.72;102834.06;4999922;28;20033;-73
2023/05/18 10:40:53;;;;;;;8.90;2.88;;;;;;;14.46;56.39;102831.19;4990241;28;20025;-73
2023/05/18 10:43:25;;;;;;;7.13;2.63;;;;;;;14.18;55.34;102821.53;4991597;28;20509;-73
2023/05/18 10:45:57;;;;;;;7.15;3.17;;;;;;;14.09;53.00;102828.50;5001683;28;20629;-73
2023/05/18 10:48:24;;;;;;;8.63;2.53;;;;;;;14.56;53.96;102825.91;5005070;28;20053;-72
2023/05/18 10:50:51;;;;;;;6.70;3.33;;;;;;;14.44;52.13;102826.75;4989593;28;20034;-73
2023/05/18 10:53:18;;;;;;;7.78;2.53;;;;;;;14.87;52.64;102835.66;4988912;28;20470;-73
2023/05/18 10:55:44;;;;;;;7.80;2.40;;;;;;;14.81;49.46;102829.44;5001188;28;20101;-73
2023/05/18 10:58:13;;;;;;;10.40;3.22;;;;;;;14.86;50.93;102833.19;4988452;28;20034;-73
2023/05/18 11:00:41;;;;;;;6.72;2.95;;;;;;;15.10;51.03;102833.06;4999789;28;20033;-73
2023/05/18 11:03:11;;;;;;;9.18;2.80;;;;;;;15.35;49.75;102821.63;5006054;28;20026;-73
2023/05/18 11:05:38;;;;;;;6.28;3.03;;;;;;;15.56;52.94;102827.81;4998395;28;20030;-73
2023/05/18 11:08:04;;;;;;;5.65;3.35;;;;;;;15.42;53.46;102821.78;4993242;28;20499;-73
2023/05/18 11:10:41;;;;;;;8.45;3.45;;;;;;;15.64;48.90;102829.63;4980508;28;20053;-73
2023/05/18 11:13:09;;;;;;;9.45;3.28;;;;;;;15.37;48.23;102824.91;5001214;28;20034;-73
2023/05/18 11:15:53;;;;;;;6.22;3.30;;;;;;;15.47;48.82;102824.31;4990954;28;20041;-73
2023/05/18 11:18:19;;;;;;;9.15;2.58;;;;;;;15.47;48.14;102824.31;5000916;28;20328;-72
2023/05/18 11:20:45;;;;;;;5.50;2.70;;;;;;;15.94;50.50;102817.00;5000151;28;20037;-73
2023/05/18 11:23:17;;;;;;;3.45;2.15;;;;;;;15.71;47.82;102822.50;4986416;28;20038;-73
2023/05/18 11:25:42;;;;;;;5.68;2.60;;;;;;;15.99;47.79;102820.38;5003995;28;20029;-73
2023/05/18 11:28:12;;;;;;;5.45;2.58;;;;;;;15.65;46.66;102825.59;4997202;28;20041;-73
2023/05/18 11:30:39;;;;;;;4.30;2.95;;;;;;;16.03;45.82;102818.44;4999069;28;20558;-73
2023/05/18 11:33:12;;;;;;;5.78;2.85;;;;;;;16.22;47.78;102816.84;4978915;28;20037;-73
2023/05/18 11:36:13;;;;;;;5.97;2.92;;;;;;;16.16;50.24;102819.13;5003628;28;20446;-73
2023/05/18 11:39:02;;;;;;;7.68;4.00;;;;;;;15.71;49.45;102811.22;4985632;28;20057;-72
2023/05/18 11:41:37;;;;;;;9.50;2.70;;;;;;;15.81;47.98;102807.84;5003307;28;20630;-73
2023/05/18 11:44:08;;;;;;;6.13;2.63;;;;;;;16.01;48.79;102809.53;5009773;28;20462;-73
2023/05/18 11:46:35;;;;;;;8.05;3.17;;;;;;;16.05;47.23;102792.66;4988975;28;20080;-72
2023/05/18 11:49:06;;;;;;;5.60;3.60;;;;;;;15.72;49.69;102801.59;4988214;28;20089;-73
2023/05/18 11:51:32;;;;;;;6.07;3.25;;;;;;;15.29;48.72;102792.03;4991798;28;20026;-73
2023/05/18 11:53:58;;;;;;;8.85;3.03;;;;;;;15.62;50.58;102783.16;5006394;28;20030;-73
2023/05/18 11:56:32;;;;;;;3.17;2.60;;;;;;;15.96;50.31;102783.56;5005962;28;20033;-73
2023/05/18 11:59:13;;;;;;;3.58;2.67;;;;;;;15.78;49.12;102783.97;4991744;28;20128;-73
2023/05/18 12:01:40;;;;;;;9.40;3.72;;;;;;;15.79;48.41;102790.44;4991257;28;20052;-73
2023/05/18 12:04:06;;;;;;;7.72;3.70;;;;;;;15.93;47.35;102778.66;4989236;28;20109;-72
2023/05/18 12:06:32;;;;;;;7.07;2.63;;;;;;;16.17;46.48;102778.41;4987078;28;20036;-73
2023/05/18 12:08:58;;;;;;;6.70;2.92;;;;;;;16.31;46.42;102777.06;5006224;28;20034;-73
2023/05/18 12:11:25;;;;;;;5.82;3.15;;;;;;;16.08;47.48;102771.34;5003377;28;20487;-73
2023/05/18 12:13:51;;;;;;;9.02;2.92;;;;;;;15.91;47.64;102764.91;5007625;28;20440;-72
2023/05/18 12:16:17;;;;;;;8.00;3.20;;;;;;;15.87;50.37;102763.19;5007035;28;20061;-73
2023/05/18 12:18:49;;;;;;;5.72;2.88;;;;;;;16.18;50.59;102762.28;4981141;28;20037;-73
2023/05/18 12:21:21;;;;;;;3.75;2.70;;;;;;;16.38;52.17;102769.56;5007500;28;20029;-73
2023/05/18 12:23:46;;;;;;;6.95;3.05;;;;;;;16.56;48.23;102760.63;4986692;28;20515;-73
2023/05/18 12:26:12;;;;;;;5.38;2.75;;;;;;;16.63;47.48;102757.94;5006424;28;20026;-73
2023/05/18 12:28:37;;;;;;;8.25;3.92;;;;;;;16.55;48.19;102764.63;5008508;28;20025;-72
2023/05/18 12:31:06;;;;;;;5.25;2.45;;;;;;;16.44;49.64;102759.59;5002104;28;20026;-73
2023/05/18 12:33:33;;;;;;;8.07;3.45;;;;;;;16.54;47.63;102749.69;5008837;28;20430;-72
2023/05/18 12:35:58;;;;;;;7.53;2.88;;;;;;;16.76;49.77;102750.09;4991294;28;20026;-73
2023/05/18 12:38:25;;;;;;;6.88;3.80;;;;;;;16.51;50.88;102747.63;5003266;28;20394;-73
2023/05/18 12:40:52;;;;;;;6.70;3.00;;;;;;;16.66;47.56;102743.88;4991022;28;20022;-73
2023/05/18 12:43:17;;;;;;;7.18;2.85;;;;;;;16.78;46.34;102751.38;5004795;28;20151;-73
2023/05/18 12:45:43;;;;;;;5.35;3.15;;;;;;;16.69;47.19;102736.63;5000869;28;20029;-73
2023/05/18 12:48:10;;;;;;;7.55;2.58;;;;;;;16.77;47.38;102744.06;5007329;28;20026;-73
2023/05/18 12:50:45;;;;;;;7.97;4.78;;;;;;;16.36;46.46;102740.88;4990948;28;20017;-73
2023/05/18 12:53:12;;;;;;;8.65;2.90;;;;;;;16.60;47.60;102736.06;5002340;28;20487;-73
2023/05/18 12:55:38;;;;;;;5.75;3.13;;;;;;;16.74;46.62;102742.00;4990670;28;20029;-73
2023/05/18 12:58:04;;;;;;;6.82;2.97;;;;;;;16.75;46.65;102737.97;5008641;28;20038;-73
2023/05/18 13:00:34;;;;;;;5.22;3.53;;;;;;;16.73;46.02;102736.72;4999229;28;20056;-73
2023/05/18 13:03:07;;;;;;;10.63;3.30;;;;;;;16.66;46.05;102734.56;4993161;28;20084;-73
2023/05/18 13:05:33;;;;;;;9.70;2.72;;;;;;;16.67;48.12;102733.38;4980973;28;20096;-73
2023/05/18 13:07:58;;;;;;;5.13;2.75;;;;;;;16.31;46.06;102732.66;4998597;28;20030;-73
2023/05/18 13:10:23;;;;;;;6.20;2.67;;;;;;;16.30;45.83;102725.41;5008200;28;20068;-73
2023/05/18 13:12:51;;;;;;;8.80;2.58;;;;;;;16.60;47.89;102725.56;5007819;28;20022;-73
2023/05/18 13:15:19;;;;;;;6.07;2.70;;;;;;;16.24;48.39;102726.88;4984410;28;20053;-73
2023/05/18 13:18:09;;;;;;;5.03;2.95;;;;;;;16.10;47.72;102733.03;5006173;28;20041;-73
2023/05/18 13:20:47;;;;;;;5.53;2.72;;;;;;;16.25;47.57;102731.34;4981900;28;20042;-73
2023/05/18 13:23:23;;;;;;;12.48;3.08;;;;;;;16.28;47.82;102721.31;4988036;28;20033;-73
2023/05/18 13:25:49;;;;;;;4.97;2.50;;;;;;;16.41;47.21;102715.13;4985170;28;20038;-73
2023/05/18 13:28:17;;;;;;;4.90;2.40;;;;;;;17.12;46.59;102717.66;4992162;28;20053;-73
2023/05/18 13:30:44;;;;;;;12.02;3.30;;;;;;;17.12;46.28;102712.00;4983022;28;20040;-73
2023/05/18 13:33:10;;;;;;;8.15;3.00;;;;;;;16.98;46.00;102714.56;4997451;28;20493;-73
2023/05/18 13:35:37;;;;;;;8.00;2.70;;;;;;;17.63;45.80;102713.56;5004293;28;20034;-73
2023/05/18 13:38:03;;;;;;;5.43;2.70;;;;;;;18.15;45.56;102713.88;4988702;28;20038;-73
2023/05/18 13:40:28;;;;;;;5.05;2.75;;;;;;;18.36;45.94;102716.16;4986126;28;20789;-73
2023/05/18 13:42:54;;;;;;;7.65;3.83;;;;;;;18.55;42.42;102710.31;4990683;28;20029;-73
2023/05/18 13:45:22;;;;;;;5.82;2.90;;;;;;;18.60;41.28;102695.75;4980980;28;20117;-73
2023/05/18 13:47:50;;;;;;;7.13;2.65;;;;;;;18.55;42.82;102703.81;4997137;28;20048;-73
2023/05/18 13:50:16;;;;;;;6.47;2.70;;;;;;;18.40;44.38;102697.16;5011369;28;20022;-73
2023/05/18 13:52:42;;;;;;;3.88;3.15;;;;;;;18.29;43.11;102697.03;4993481;28;20036;-73
2023/05/18 13:55:07;;;;;;;4.75;2.47;;;;;;;18.30;43.63;102693.03;4994646;28;20442;-73
2023/05/18 13:57:33;;;;;;;7.07;3.97;;;;;;;17.94;45.62;102695.44;4992649;28;20034;-73
2023/05/18 14:00:02;;;;;;;9.15;3.15;;;;;;;18.29;43.02;102688.53;4993028;28;20033;-74
2023/05/18 14:02:28;;;;;;;5.80;2.95;;;;;;;18.47;41.77;102689.56;5012930;28;20025;-73
2023/05/18 14:04:53;;;;;;;4.07;2.50;;;;;;;18.48;44.00;102693.19;4992009;28;20030;-73
2023/05/18 14:07:18;;;;;;;7.75;3.03;;;;;;;18.86;42.02;102688.34;4993260;28;20391;-73
2023/05/18 14:09:44;;;;;;;5.65;2.33;;;;;;;19.05;41.83;102690.13;5011220;28;20834;-73
2023/05/18 14:12:10;;;;;;;5.25;3.53;;;;;;;19.07;41.67;102682.03;5012087;28;20395;-73
2023/05/18 14:14:39;;;;;;;8.00;2.95;;;;;;;18.90;41.27;102683.50;4993355;28;20032;-73
2023/05/18 14:17:05;;;;;;;6.15;2.70;;;;;;;19.29;40.48;102683.81;4976384;28;20055;-73
2023/05/18 14:19:30;;;;;;;7.25;3.08;;;;;;;19.26;39.55;102676.06;4970326;28;20037;-73
2023/05/18 14:21:56;;;;;;;6.88;3.15;;;;;;;19.15;39.87;102669.53;4991045;28;20030;-73
2023/05/18 14:24:21;;;;;;;7.90;2.80;;;;;;;19.30;39.67;102665.56;4990339;28;20128;-73
2023/05/18 14:26:46;;;;;;;5.65;2.58;;;;;;;19.77;39.57;102665.84;4987290;28;20038;-73
2023/05/18 14:29:12;;;;;;;8.18;2.90;;;;;;;19.32;40.30;102667.22;4983466;28;20031;-73
2023/05/18 14:31:37;;;;;;;5.20;2.67;;;;;;;19.52;39.33;102664.88;4990644;28;20040;-73
2023/05/18 14:34:02;;;;;;;4.38;2.30;;;;;;;20.23;40.18;102678.63;4998032;28;20109;-73
2023/05/18 14:36:28;;;;;;;6.28;2.20;;;;;;;19.97;39.46;102672.03;4982626;28;20054;-73
2023/05/18 14:38:53;;;;;;;5.93;2.60;;;;;;;19.67;38.17;102661.72;4991865;28;20041;-73
2023/05/18 14:41:20;;;;;;;8.95;3.13;;;;;;;20.42;38.66;102658.34;4994134;28;20077;-73
2023/05/18 14:43:46;;;;;;;5.65;2.90;;;;;;;20.50;39.93;102662.03;4967858;28;20031;-73
2023/05/18 14:46:11;;;;;;;8.50;2.63;;;;;;;20.64;38.82;102655.56;4989399;28;20049;-73
2023/05/18 14:48:36;;;;;;;6.93;2.67;;;;;;;20.08;38.84;102658.66;4982679;28;20369;-73
2023/05/18 14:51:02;;;;;;;4.00;2.30;;;;;;;19.97;38.61;102657.84;4966263;28;20041;-73
2023/05/18 14:53:27;;;;;;;6.63;3.53;;;;;;;20.40;39.37;102657.94;4988260;28;20046;-73
2023/05/18 14:55:53;;;;;;;5.68;3.95;;;;;;;20.33;39.15;102652.25;4987244;28;20034;-73
2023/05/18 14:58:18;;;;;;;4.65;2.67;;;;;;;20.10;41.26;102656.25;4998455;28;20037;-73
2023/05/18 15:00:43;;;;;;;5.03;3.42;;;;;;;20.26;37.29;102655.06;4986116;28;20034;-73
2023/05/18 15:03:09;;;;;;;4.60;2.33;;;;;;;20.46;38.64;102644.94;4989289;28;20034;-73
2023/05/18 15:05:34;;;;;;;3.67;2.03;;;;;;;20.76;38.83;102643.78;4978049;28;20030;-73
2023/05/18 15:08:00;;;;;;;3.97;2.30;;;;;;;20.36;38.15;102637.22;4991041;28;20161;-73
2023/05/18 15:10:26;;;;;;;5.40;3.10;;;;;;;20.03;38.34;102633.50;4975863;28;20026;-73
2023/05/18 15:12:51;;;;;;;5.75;2.92;;;;;;;19.95;39.19;102631.84;4972601;28;20036;-73
2023/05/18 15:15:16;;;;;;;7.18;2.65;;;;;;;19.59;38.99;102637.34;4972814;28;20526;-73
2023/05/18 15:17:42;;;;;;;6.18;2.63;;;;;;;19.36;39.19;102636.81;5008667;28;20037;-73
2023/05/18 15:20:09;;;;;;;6.45;2.85;;;;;;;19.31;39.14;102643.66;5008337;28;22063;-73
2023/05/18 15:22:34;;;;;;;6.75;3.05;;;;;;;19.33;39.25;102634.75;4985498;28;20399;-73
2023/05/18 15:25:06;;;;;;;8.88;3.10;;;;;;;19.02;39.91;102637.00;4984780;28;20037;-73
2023/05/18 15:27:36;;;;;;;4.38;2.83;;;;;;;19.21;40.83;102635.91;5005076;28;20730;-73
2023/05/18 15:30:02;;;;;;;5.50;2.95;;;;;;;19.25;40.41;102631.88;4991801;28;20026;-73